Terminal Aerodrome Forecast
Issued by NWS

Home | Current Version | Previous Version | Text Only | Print | Product List | Glossary On
Versions: 1 2 3 4 5 6 7 8 9 10 11 12 13 14 15 16 17 18 19 20 21 22 23 24 25 26 27 28 29 30 31 32 33
000
FTUS43 KLOT 250300 AAA
TAFMDW
TAF AMD
KMDW 250303Z 2503/2524 VRB03KT P6SM SCT011 BKN120
     FM250400 03004KT P6SM BKN011 OVC110
     FM250600 06006KT P6SM OVC009
     FM251200 05012G16KT P6SM OVC009
     FM251500 05019G28KT 4SM -SN BR OVC009
      TEMPO 2515/2518 1 1/2SM -SN BR VV007
     FM251900 04019G26KT P6SM -SHSN OVC015
     FM252200 04015G23KT P6SM BKN025=

USA.gov is the U.S. government's official web portal to all federal, state and local government web resources and services.